Brookings, OR

12:05 AM PDT on September 03, 2014 (GMT -0700)
Gardner Ridge | Change Station
CLOSE
Current Station
Personal Weather Station
Location: Brookings, OR
Elevation: 1365 ft
Nearby Weather Stations

Elev 1365 ft 42.11 °N, 124.21 °W | Updated 2 minutes ago

Clear
Clear
66.7 °F
Feels Like 66.7 °F
N
9.0
Wind Variable Wind from NNE
Gusts 14.0 mph

Today
High -- | Low -- °F
--% Chance of Precip.
Yesterday
High -- | Low -- °F
Precip. -- in
6:44 AM 7:47 PM
First Quarter, 59% visible
Pressure 29.87 in
Visibility 10.0 miles
Clouds Clear
Dew Point 47 °F
Humidity 50%
Rainfall 0.00 in
Snow Depth Not available.
UV 0 out of 12
Pollen 6.10 out of 12
Air Quality Not available.
Flu Activity Not available.
METAR KBOK 030656Z AUTO VRB05KT 10SM CLR 23/09 A2988 RMK AO2 T02270094 402660122 SLP115

More Conditions Fewer Conditions

Pressure 29.87 in
Visibility 10.0 miles
Clouds Clear
Dew Point 47 °F
Humidity 50%
Rainfall 0.00 in
Snow Depth Not available.
UV 0 out of 12
Pollen 6.10 out of 12
Air Quality Not available.
Flu Activity Not available.
METAR KBOK 030656Z AUTO VRB05KT 10SM CLR 23/09 A2988 RMK AO2 T02270094 402660122 SLP115

More Conditions Fewer Conditions

10-Day Weather Forecast

Almanac

Astronomy

Sep. 03, 2014 Rise Set
Actual Time 6:44 AM PDT 7:47 PM PDT
Civil Twilight 6:16 AM PDT 8:15 PM PDT
Nautical Twilight 5:41 AM PDT 8:49 PM PDT
Astronomical Twilight 5:06 AM PDT 9:25 PM PDT
Moon 3:38 PM PDT 12:40 AM PDT
Length of Visible Light 13h 59m
Length of Day
13h 02m
Tomorrow will be 2m 44s shorter.
First Quarter, 59% of the Moon is Illuminated
Today
First Quarter
Sep 8
Full
Sep 15
Last Quarter
Sep 24
New
Oct 1
First Quarter

Today's Extremes

State Highs State Lows

Community

WunderPhotos

Upload Photos

1,749,888 photos uploaded!

Nearby

Snow Depth

Station Depth Elevation
Bigelow Camp 1 in 5120 ft
Big Red Mountain 0 in 6250 ft
Fish Lake 0 in 4665 ft
Billie Creek Divide 0 in 5300 ft
Fourmile Lake 2 in 6000 ft

Earthquake Activity

City Distance Mag. Time & Date
No recent earthquake activity has been reported nearby.
Minimum magnitude displayed is 2.5.

Coastal Water Temperatures

Place Temperature
Port Orford, OR 50.0 °F
Crescent City, CA 60.1 °F
Charleston, OR 55.0 °F

Nearby Weather Stations